createdAt,value
2019-01-20T00:00:37.963Z,99214.00
2019-01-20T00:02:43.091Z,99204.00
2019-01-20T00:04:48.179Z,99212.00
2019-01-20T00:06:53.157Z,99217.00
2019-01-20T00:08:58.137Z,99207.00
2019-01-20T00:11:03.164Z,99205.00
2019-01-20T00:13:08.184Z,99222.00
2019-01-20T00:15:13.777Z,99207.00
2019-01-20T00:17:18.901Z,99201.00
2019-01-20T00:19:26.051Z,99201.00
2019-01-20T00:21:31.011Z,99205.00
2019-01-20T00:23:36.286Z,99201.00
2019-01-20T00:25:41.434Z,99209.00
2019-01-20T00:27:46.413Z,99202.00
2019-01-20T00:29:51.649Z,99195.00
2019-01-20T00:31:56.679Z,99200.00
2019-01-20T00:34:01.852Z,99200.00
2019-01-20T00:36:06.896Z,99194.00
2019-01-20T00:38:12.050Z,99194.00
2019-01-20T00:40:17.286Z,99201.00
2019-01-20T00:42:22.254Z,99202.00
2019-01-20T00:44:27.213Z,99199.00
2019-01-20T00:46:33.091Z,99197.00
2019-01-20T00:48:38.125Z,99202.00
2019-01-20T00:50:43.168Z,99200.00
2019-01-20T00:52:48.271Z,99195.00
2019-01-20T00:54:53.408Z,99196.00
2019-01-20T00:56:58.431Z,99190.00
2019-01-20T00:59:03.763Z,99195.00
2019-01-20T01:01:08.899Z,99190.00
2019-01-20T01:03:13.944Z,99190.00
2019-01-20T01:05:19.692Z,99197.00
2019-01-20T01:07:24.664Z,99194.00
2019-01-20T01:09:29.905Z,99184.00
2019-01-20T01:11:35.198Z,99191.00
2019-01-20T01:13:40.244Z,99196.00
2019-01-20T01:15:45.291Z,99196.00
2019-01-20T01:17:50.403Z,99192.00
2019-01-20T01:19:55.540Z,99192.00
2019-01-20T01:22:00.518Z,99184.00
2019-01-20T01:24:05.638Z,99195.00
2019-01-20T01:26:10.767Z,99199.00
2019-01-20T01:28:15.883Z,99196.00
2019-01-20T01:30:23.921Z,99201.00
2019-01-20T01:32:28.955Z,99204.00
2019-01-20T01:34:34.090Z,99206.00
2019-01-20T01:36:39.292Z,99200.00
2019-01-20T01:38:44.344Z,99203.00
2019-01-20T01:40:49.485Z,99203.00
2019-01-20T01:42:54.452Z,99211.00
2019-01-20T01:44:59.433Z,99205.00
2019-01-20T01:47:04.541Z,99203.00
2019-01-20T01:49:09.642Z,99203.00
2019-01-20T01:51:15.084Z,99207.00
2019-01-20T01:53:20.061Z,99202.00
2019-01-20T01:55:25.102Z,99200.00
2019-01-20T01:57:30.084Z,99201.00
2019-01-20T01:59:35.128Z,99208.00
2019-01-20T02:01:41.710Z,99217.00
2019-01-20T02:03:48.211Z,99198.00
2019-01-20T02:05:54.905Z,99209.00
2019-01-20T02:08:03.306Z,99201.00
2019-01-20T02:10:12.085Z,99204.00
2019-01-20T02:12:17.042Z,99212.00
2019-01-20T02:14:22.547Z,99205.00
2019-01-20T02:16:27.844Z,99205.00
2019-01-20T02:18:32.902Z,99206.00
2019-01-20T02:20:37.965Z,99204.00
2019-01-20T02:22:43.942Z,99207.00
2019-01-20T02:24:49.041Z,99209.00
2019-01-20T02:26:54.165Z,99214.00
2019-01-20T02:28:59.200Z,99208.00
2019-01-20T02:31:04.364Z,99209.00
2019-01-20T02:33:09.768Z,99214.00
2019-01-20T02:35:15.156Z,99210.00
2019-01-20T02:37:20.136Z,99206.00
2019-01-20T02:39:25.440Z,99199.00
2019-01-20T02:41:30.555Z,99203.00
2019-01-20T02:43:35.594Z,99204.00
2019-01-20T02:45:40.724Z,99201.00
2019-01-20T02:47:45.942Z,99206.00
2019-01-20T02:49:51.262Z,99198.00
2019-01-20T02:51:56.345Z,99216.00
2019-01-20T02:54:01.406Z,99206.00
2019-01-20T02:56:06.748Z,99217.00
2019-01-20T02:58:11.817Z,99208.00
2019-01-20T03:00:24.544Z,99209.00
2019-01-20T03:02:30.336Z,99207.00
2019-01-20T03:04:35.313Z,99209.00
2019-01-20T03:08:46.914Z,99219.00
2019-01-20T03:10:52.051Z,99208.00
2019-01-20T03:12:57.325Z,99212.00
2019-01-20T03:15:02.662Z,99209.00
2019-01-20T03:17:08.129Z,99217.00
2019-01-20T03:19:13.199Z,99212.00
2019-01-20T03:21:18.735Z,99213.00
2019-01-20T03:23:24.023Z,99214.00
2019-01-20T03:25:29.089Z,99207.00
2019-01-20T03:27:34.134Z,99208.00
2019-01-20T03:29:39.030Z,99211.00
2019-01-20T03:31:44.014Z,99213.00
2019-01-20T03:33:49.268Z,99216.00
2019-01-20T03:35:55.083Z,99215.00
2019-01-20T03:38:00.139Z,99223.00
2019-01-20T03:40:07.764Z,99220.00
2019-01-20T03:42:12.732Z,99215.00
2019-01-20T03:44:17.853Z,99228.00
2019-01-20T03:46:23.610Z,99215.00
2019-01-20T03:48:28.733Z,99213.00
2019-01-20T03:50:34.038Z,99211.00
2019-01-20T03:52:39.598Z,99219.00
2019-01-20T03:54:44.605Z,99214.00
2019-01-20T03:56:49.634Z,99223.00
2019-01-20T03:58:54.763Z,99210.00
2019-01-20T04:00:59.869Z,99214.00
2019-01-20T04:03:05.905Z,99222.00
2019-01-20T04:05:11.634Z,99220.00
2019-01-20T04:07:16.963Z,99231.00
2019-01-20T04:09:22.040Z,99220.00
2019-01-20T04:11:27.316Z,99213.00
2019-01-20T04:13:32.334Z,99226.00
2019-01-20T04:15:37.412Z,99220.00
2019-01-20T04:17:42.785Z,99214.00
2019-01-20T04:19:47.840Z,99218.00
2019-01-20T04:21:53.170Z,99217.00
2019-01-20T04:23:58.170Z,99216.00
2019-01-20T04:26:03.392Z,99214.00
2019-01-20T04:28:08.634Z,99209.00
2019-01-20T04:30:16.991Z,99219.00
2019-01-20T04:32:22.125Z,99212.00
2019-01-20T04:34:27.302Z,99208.00
2019-01-20T04:36:32.256Z,99194.00
2019-01-20T04:38:37.482Z,99208.00
2019-01-20T04:40:42.555Z,99206.00
2019-01-20T04:42:47.600Z,99208.00
2019-01-20T04:44:52.643Z,99198.00
2019-01-20T04:46:57.625Z,99196.00
2019-01-20T04:49:02.842Z,99201.00
2019-01-20T04:51:07.979Z,99199.00
2019-01-20T04:53:13.169Z,99210.00
2019-01-20T04:55:18.300Z,99216.00
2019-01-20T04:57:23.563Z,99213.00
2019-01-20T04:59:28.797Z,99219.00
2019-01-20T05:01:34.160Z,99206.00
2019-01-20T05:03:39.327Z,99199.00
2019-01-20T05:05:44.578Z,99215.00
2019-01-20T05:07:49.984Z,99204.00
2019-01-20T05:09:55.287Z,99208.00
2019-01-20T05:12:00.527Z,99221.00
2019-01-20T05:14:05.750Z,99221.00
2019-01-20T05:16:10.766Z,99219.00
2019-01-20T05:18:15.691Z,99221.00
2019-01-20T05:20:20.934Z,99226.00
2019-01-20T05:22:26.155Z,99220.00
2019-01-20T05:24:31.066Z,99230.00
2019-01-20T05:26:36.007Z,99234.00
2019-01-20T05:28:41.251Z,99226.00
2019-01-20T05:30:46.228Z,99226.00
2019-01-20T05:32:51.346Z,99232.00
2019-01-20T05:34:57.057Z,99223.00
2019-01-20T05:37:02.824Z,99235.00
2019-01-20T05:39:09.439Z,99240.00
2019-01-20T05:41:14.436Z,99233.00
2019-01-20T05:43:19.493Z,99230.00
2019-01-20T05:45:26.420Z,99234.00
2019-01-20T05:47:31.938Z,99228.00
2019-01-20T05:49:37.176Z,99233.00
2019-01-20T05:51:42.742Z,99242.00
2019-01-20T05:53:47.651Z,99243.00
2019-01-20T05:55:52.971Z,99233.00
2019-01-20T05:57:58.309Z,99236.00
2019-01-20T06:00:04.301Z,99240.00
2019-01-20T06:02:09.601Z,99228.00
2019-01-20T06:04:14.541Z,99240.00
2019-01-20T06:06:19.455Z,99239.00
2019-01-20T06:08:24.496Z,99241.00
2019-01-20T06:10:29.689Z,99242.00
2019-01-20T06:12:35.097Z,99247.00
2019-01-20T06:14:40.247Z,99252.00
2019-01-20T06:16:45.227Z,99241.00
2019-01-20T06:18:50.456Z,99250.00
2019-01-20T06:20:55.701Z,99250.00
2019-01-20T06:23:00.963Z,99254.00
2019-01-20T06:25:06.868Z,99255.00
2019-01-20T06:27:12.089Z,99255.00
2019-01-20T06:29:16.983Z,99262.00
2019-01-20T06:31:22.596Z,99257.00
2019-01-20T06:33:27.857Z,99256.00
2019-01-20T06:35:33.121Z,99258.00
2019-01-20T06:37:38.363Z,99261.00
2019-01-20T06:39:43.451Z,99272.00
2019-01-20T06:41:48.493Z,99270.00
2019-01-20T06:43:53.911Z,99266.00
2019-01-20T06:45:59.184Z,99268.00
2019-01-20T06:48:04.476Z,99270.00
2019-01-20T06:50:12.964Z,99274.00
2019-01-20T06:52:17.854Z,99273.00
2019-01-20T06:54:22.875Z,99266.00
2019-01-20T06:56:28.510Z,99272.00
2019-01-20T06:58:33.553Z,99280.00
2019-01-20T07:00:38.529Z,99284.00
2019-01-20T07:02:43.550Z,99281.00
2019-01-20T07:04:48.542Z,99283.00
2019-01-20T07:06:53.438Z,99289.00
2019-01-20T07:08:59.135Z,99295.00
2019-01-20T07:11:04.264Z,99304.00
2019-01-20T07:13:11.323Z,99293.00
2019-01-20T07:15:19.659Z,99289.00
2019-01-20T07:17:25.089Z,99305.00
2019-01-20T07:19:30.352Z,99308.00
2019-01-20T07:21:35.590Z,99316.00
2019-01-20T07:23:40.642Z,99314.00
2019-01-20T07:25:45.745Z,99312.00
2019-01-20T07:27:50.719Z,99313.00
2019-01-20T07:29:55.781Z,99313.00
2019-01-20T07:32:01.147Z,99330.00
2019-01-20T07:34:06.213Z,99314.00
2019-01-20T07:36:11.354Z,99320.00
2019-01-20T07:38:16.618Z,99326.00
2019-01-20T07:40:23.834Z,99317.00
2019-01-20T07:42:29.055Z,99321.00
2019-01-20T07:44:34.092Z,99328.00
2019-01-20T07:46:39.454Z,99325.00
2019-01-20T07:48:44.348Z,99326.00
2019-01-20T07:50:49.312Z,99340.00
2019-01-20T07:52:55.076Z,99341.00
2019-01-20T07:55:00.412Z,99330.00
2019-01-20T07:57:05.511Z,99336.00
2019-01-20T07:59:10.995Z,99330.00
2019-01-20T08:01:16.051Z,99341.00
2019-01-20T08:03:21.008Z,99339.00
2019-01-20T08:05:26.459Z,99343.00
2019-01-20T08:07:31.532Z,99350.00
2019-01-20T08:09:36.953Z,99341.00
2019-01-20T08:11:42.733Z,99348.00
2019-01-20T08:13:47.765Z,99355.00
2019-01-20T08:15:52.855Z,99353.00
2019-01-20T08:17:58.204Z,99350.00
2019-01-20T08:20:03.756Z,99347.00
2019-01-20T08:22:09.307Z,99348.00
2019-01-20T08:24:14.296Z,99350.00
2019-01-20T08:26:19.421Z,99363.00
2019-01-20T08:28:24.762Z,99352.00
2019-01-20T08:30:29.886Z,99363.00
2019-01-20T08:32:35.233Z,99363.00
2019-01-20T08:34:40.480Z,99356.00
2019-01-20T08:36:45.593Z,99360.00
2019-01-20T08:38:50.540Z,99375.00
2019-01-20T08:40:55.658Z,99361.00
2019-01-20T08:43:01.082Z,99377.00
2019-01-20T08:45:15.357Z,99384.00
2019-01-20T08:47:39.636Z,99378.00
2019-01-20T08:49:44.524Z,99388.00
2019-01-20T08:51:49.908Z,99382.00
2019-01-20T08:53:54.949Z,99375.00
2019-01-20T08:56:00.945Z,99386.00
2019-01-20T08:58:06.153Z,99385.00
2019-01-20T09:00:17.339Z,99388.00
2019-01-20T09:02:22.537Z,99388.00
2019-01-20T09:04:27.987Z,99396.00
2019-01-20T09:06:32.904Z,99399.00
2019-01-20T09:08:38.124Z,99398.00
2019-01-20T09:10:43.205Z,99395.00
2019-01-20T09:12:48.761Z,99405.00
2019-01-20T09:14:54.060Z,99394.00
2019-01-20T09:16:59.138Z,99401.00
2019-01-20T09:19:04.751Z,99394.00
2019-01-20T09:21:09.747Z,99405.00
2019-01-20T09:23:15.083Z,99402.00
2019-01-20T09:25:20.226Z,99414.00
2019-01-20T09:27:25.485Z,99397.00
2019-01-20T09:29:31.043Z,99407.00
2019-01-20T09:31:36.111Z,99396.00
2019-01-20T09:33:41.182Z,99412.00
2019-01-20T09:35:47.203Z,99414.00
2019-01-20T09:37:52.372Z,99398.00
2019-01-20T09:39:57.537Z,99409.00
2019-01-20T09:42:02.519Z,99419.00
2019-01-20T09:44:07.737Z,99420.00
2019-01-20T09:46:13.012Z,99412.00
2019-01-20T09:48:18.361Z,99421.00
2019-01-20T09:50:23.392Z,99407.00
2019-01-20T09:52:28.391Z,99409.00
2019-01-20T09:54:33.493Z,99414.00
2019-01-20T09:56:38.975Z,99416.00
2019-01-20T09:58:43.990Z,99418.00
2019-01-20T10:00:49.046Z,99417.00
2019-01-20T10:02:54.430Z,99411.00
2019-01-20T10:04:59.464Z,99418.00
2019-01-20T10:07:04.600Z,99419.00
2019-01-20T10:09:10.194Z,99424.00
2019-01-20T10:11:15.147Z,99419.00
2019-01-20T10:13:20.486Z,99423.00
2019-01-20T10:15:26.275Z,99426.00
2019-01-20T10:17:31.168Z,99425.00
2019-01-20T10:19:36.081Z,99423.00
2019-01-20T10:21:41.201Z,99423.00
2019-01-20T10:23:46.462Z,99418.00
2019-01-20T10:25:51.394Z,99419.00
2019-01-20T10:27:56.965Z,99428.00
2019-01-20T10:30:01.914Z,99414.00
2019-01-20T10:32:07.263Z,99424.00
2019-01-20T10:34:12.535Z,99424.00
2019-01-20T10:36:17.889Z,99417.00
2019-01-20T10:38:23.207Z,99430.00
2019-01-20T10:40:28.627Z,99423.00
2019-01-20T10:42:33.971Z,99421.00
2019-01-20T10:44:39.695Z,99423.00
2019-01-20T10:46:45.589Z,99425.00
2019-01-20T10:48:51.182Z,99437.00
2019-01-20T10:50:56.272Z,99436.00
2019-01-20T10:53:01.698Z,99430.00
2019-01-20T10:55:08.153Z,99430.00
2019-01-20T10:57:14.203Z,99432.00
2019-01-20T10:59:19.375Z,99428.00
2019-01-20T11:01:24.491Z,99423.00
2019-01-20T11:03:30.544Z,99437.00
2019-01-20T11:05:35.551Z,99437.00
2019-01-20T11:07:40.579Z,99428.00
2019-01-20T11:09:45.502Z,99427.00
2019-01-20T11:11:50.825Z,99421.00
2019-01-20T11:13:56.192Z,99421.00
2019-01-20T11:16:01.343Z,99427.00
2019-01-20T11:18:07.131Z,99419.00
2019-01-20T11:20:14.376Z,99421.00
2019-01-20T11:22:19.668Z,99421.00
2019-01-20T11:24:24.631Z,99421.00
2019-01-20T11:26:29.660Z,99420.00
2019-01-20T11:28:34.634Z,99421.00
2019-01-20T11:30:39.754Z,99416.00
2019-01-20T11:32:44.880Z,99426.00
2019-01-20T11:34:50.567Z,99431.00
2019-01-20T11:36:55.587Z,99420.00
2019-01-20T11:39:00.869Z,99413.00
2019-01-20T11:41:06.341Z,99412.00
2019-01-20T11:43:11.304Z,99425.00
2019-01-20T11:45:23.890Z,99420.00
2019-01-20T11:47:29.672Z,99420.00
2019-01-20T11:49:34.666Z,99422.00
2019-01-20T11:51:40.016Z,99423.00
2019-01-20T11:53:44.968Z,99421.00
2019-01-20T11:55:50.588Z,99420.00
2019-01-20T11:57:55.949Z,99420.00
2019-01-20T12:00:01.079Z,99420.00
2019-01-20T12:02:07.193Z,99419.00
2019-01-20T12:04:12.301Z,99413.00
2019-01-20T12:06:17.377Z,99411.00
2019-01-20T12:08:22.384Z,99424.00
2019-01-20T12:10:27.623Z,99407.00
2019-01-20T12:12:33.024Z,99413.00
2019-01-20T12:14:38.387Z,99415.00
2019-01-20T12:16:43.438Z,99416.00
2019-01-20T12:18:48.704Z,99409.00
2019-01-20T12:20:54.477Z,99410.00
2019-01-20T12:22:59.427Z,99410.00
2019-01-20T12:25:06.305Z,99415.00
2019-01-20T12:27:11.416Z,99405.00
2019-01-20T12:29:16.728Z,99418.00
2019-01-20T12:31:21.830Z,99404.00
2019-01-20T12:33:26.775Z,99409.00
2019-01-20T12:35:31.876Z,99410.00
2019-01-20T12:37:37.557Z,99400.00
2019-01-20T12:39:43.189Z,99407.00
2019-01-20T12:41:48.392Z,99409.00
2019-01-20T12:43:53.422Z,99409.00
2019-01-20T12:45:58.795Z,99401.00
2019-01-20T12:48:04.387Z,99398.00
2019-01-20T12:50:13.481Z,99410.00
2019-01-20T12:52:19.042Z,99408.00
2019-01-20T12:54:24.396Z,99408.00
2019-01-20T12:56:29.483Z,99412.00
2019-01-20T12:58:35.363Z,99401.00
2019-01-20T13:00:40.413Z,99414.00
2019-01-20T13:02:46.097Z,99401.00
2019-01-20T13:04:51.045Z,99412.00
2019-01-20T13:06:56.177Z,99402.00
2019-01-20T13:09:01.073Z,99407.00
2019-01-20T13:11:06.695Z,99414.00
2019-01-20T13:13:12.323Z,99415.00
2019-01-20T13:15:20.030Z,99415.00
2019-01-20T13:17:25.093Z,99411.00
2019-01-20T13:19:30.330Z,99417.00
2019-01-20T13:21:35.987Z,99406.00
2019-01-20T13:23:40.969Z,99415.00
2019-01-20T13:25:45.836Z,99400.00
2019-01-20T13:27:51.219Z,99406.00
2019-01-20T13:29:56.504Z,99412.00
2019-01-20T13:32:01.545Z,99414.00
2019-01-20T13:34:07.338Z,99411.00
2019-01-20T13:36:12.717Z,99409.00
2019-01-20T13:38:21.086Z,99408.00
2019-01-20T13:40:43.810Z,99404.00
2019-01-20T13:42:48.837Z,99411.00
2019-01-20T13:44:54.078Z,99420.00
2019-01-20T13:46:59.195Z,99403.00
2019-01-20T13:49:04.791Z,99411.00
2019-01-20T13:51:09.932Z,99414.00
2019-01-20T13:53:14.989Z,99416.00
2019-01-20T13:55:20.123Z,99413.00
2019-01-20T13:57:25.098Z,99419.00
2019-01-20T13:59:30.171Z,99420.00
2019-01-20T14:01:35.112Z,99423.00
2019-01-20T14:03:40.006Z,99432.00
2019-01-20T14:05:45.027Z,99425.00
2019-01-20T14:07:50.341Z,99423.00
2019-01-20T14:09:55.392Z,99434.00
2019-01-20T14:12:00.438Z,99434.00
2019-01-20T14:14:05.904Z,99430.00
2019-01-20T14:16:11.127Z,99430.00
2019-01-20T14:18:16.156Z,99442.00
2019-01-20T14:20:22.180Z,99427.00
2019-01-20T14:22:27.329Z,99440.00
2019-01-20T14:24:32.382Z,99445.00
2019-01-20T14:26:37.647Z,99435.00
2019-01-20T14:28:42.630Z,99441.00
2019-01-20T14:30:47.646Z,99440.00
2019-01-20T14:32:52.715Z,99438.00
2019-01-20T14:34:57.861Z,99440.00
2019-01-20T14:37:02.988Z,99435.00
2019-01-20T14:39:12.711Z,99439.00
2019-01-20T14:41:18.077Z,99444.00
2019-01-20T14:43:23.125Z,99446.00
2019-01-20T14:45:28.192Z,99438.00
2019-01-20T14:47:33.148Z,99443.00
2019-01-20T14:49:38.126Z,99446.00
2019-01-20T14:51:43.228Z,99452.00
2019-01-20T14:53:48.459Z,99449.00
2019-01-20T14:55:53.779Z,99452.00
2019-01-20T14:57:58.814Z,99453.00
2019-01-20T15:00:05.437Z,99450.00
2019-01-20T15:02:10.541Z,99461.00
2019-01-20T15:04:15.445Z,99458.00
2019-01-20T15:06:20.472Z,99453.00
2019-01-20T15:08:26.137Z,99460.00
2019-01-20T15:10:31.448Z,99468.00
2019-01-20T15:12:36.555Z,99474.00
2019-01-20T15:14:41.555Z,99479.00
2019-01-20T15:16:46.530Z,99474.00
2019-01-20T15:18:51.409Z,99470.00
2019-01-20T15:20:56.618Z,99473.00
2019-01-20T15:23:01.670Z,99481.00
2019-01-20T15:25:09.641Z,99481.00
2019-01-20T15:27:14.622Z,99486.00
2019-01-20T15:29:19.717Z,99486.00
2019-01-20T15:31:25.017Z,99486.00
2019-01-20T15:33:29.940Z,99485.00
2019-01-20T15:35:35.074Z,99489.00
2019-01-20T15:37:40.280Z,99496.00
2019-01-20T15:39:45.358Z,99503.00
2019-01-20T15:41:50.380Z,99500.00
2019-01-20T15:43:55.506Z,99497.00
2019-01-20T15:46:00.533Z,99503.00
2019-01-20T15:48:06.052Z,99505.00
2019-01-20T15:50:15.783Z,99506.00
2019-01-20T15:52:20.893Z,99510.00
2019-01-20T15:54:25.894Z,99515.00
2019-01-20T15:56:34.152Z,99519.00
2019-01-20T15:58:37.452Z,99519.00
2019-01-20T16:00:42.493Z,99522.00
2019-01-20T16:02:47.706Z,99517.00
2019-01-20T16:04:52.862Z,99526.00
2019-01-20T16:06:57.898Z,99535.00
2019-01-20T16:09:02.985Z,99529.00
2019-01-20T16:11:08.002Z,99529.00
2019-01-20T16:13:13.116Z,99532.00
2019-01-20T16:15:27.744Z,99534.00
2019-01-20T16:17:32.705Z,99542.00
2019-01-20T16:19:37.757Z,99542.00
2019-01-20T16:21:43.182Z,99553.00
2019-01-20T16:23:48.266Z,99540.00
2019-01-20T16:25:53.284Z,99548.00
2019-01-20T16:27:58.655Z,99547.00
2019-01-20T16:30:04.397Z,99551.00
2019-01-20T16:32:09.519Z,99550.00
2019-01-20T16:34:14.473Z,99563.00
2019-01-20T16:36:19.520Z,99564.00
2019-01-20T16:38:24.499Z,99569.00
2019-01-20T16:40:29.711Z,99568.00
2019-01-20T16:42:35.112Z,99567.00
2019-01-20T16:44:40.202Z,99590.00
2019-01-20T16:46:45.224Z,99573.00
2019-01-20T16:48:50.195Z,99572.00
2019-01-20T16:50:55.400Z,99580.00
2019-01-20T16:53:00.495Z,99588.00
2019-01-20T16:55:06.300Z,99588.00
2019-01-20T16:57:11.329Z,99592.00
2019-01-20T16:59:16.236Z,99593.00
2019-01-20T17:01:21.504Z,99602.00
2019-01-20T17:03:26.450Z,99596.00
2019-01-20T17:05:31.903Z,99606.00
2019-01-20T17:07:36.876Z,99603.00
2019-01-20T17:09:43.378Z,99617.00
2019-01-20T17:11:48.409Z,99615.00
2019-01-20T17:13:53.438Z,99610.00
2019-01-20T17:15:58.491Z,99612.00
2019-01-20T17:18:03.627Z,99617.00
2019-01-20T17:20:10.041Z,99617.00
2019-01-20T17:22:15.503Z,99625.00
2019-01-20T17:24:20.554Z,99639.00
2019-01-20T17:26:25.629Z,99622.00
2019-01-20T17:28:30.596Z,99614.00
2019-01-20T17:30:35.794Z,99628.00
2019-01-20T17:32:40.897Z,99626.00
2019-01-20T17:34:45.921Z,99619.00
2019-01-20T17:36:51.665Z,99628.00
2019-01-20T17:38:56.612Z,99623.00
2019-01-20T17:41:02.019Z,99618.00
2019-01-20T17:43:07.690Z,99628.00
2019-01-20T17:45:13.617Z,99632.00
2019-01-20T17:47:18.644Z,99631.00
2019-01-20T17:49:23.616Z,99627.00
2019-01-20T17:51:28.693Z,99631.00
2019-01-20T17:53:33.645Z,99647.00
2019-01-20T17:55:38.768Z,99640.00
2019-01-20T17:57:43.871Z,99640.00
2019-01-20T17:59:48.841Z,99637.00
2019-01-20T18:01:53.902Z,99646.00
2019-01-20T18:03:59.381Z,99652.00
2019-01-20T18:06:04.634Z,99659.00
2019-01-20T18:08:09.767Z,99650.00
2019-01-20T18:10:15.601Z,99654.00
2019-01-20T18:12:20.687Z,99661.00
2019-01-20T18:14:25.742Z,99650.00
2019-01-20T18:16:30.998Z,99659.00
2019-01-20T18:18:35.955Z,99672.00
2019-01-20T18:20:41.356Z,99674.00
2019-01-20T18:22:46.736Z,99669.00
2019-01-20T18:24:51.798Z,99676.00
2019-01-20T18:26:57.066Z,99686.00
2019-01-20T18:29:02.185Z,99683.00
2019-01-20T18:31:07.275Z,99681.00
2019-01-20T18:33:12.399Z,99665.00
2019-01-20T18:35:17.893Z,99667.00
2019-01-20T18:37:22.939Z,99673.00
2019-01-20T18:39:28.060Z,99689.00
2019-01-20T18:41:33.059Z,99688.00
2019-01-20T18:43:38.439Z,99687.00
2019-01-20T18:45:43.894Z,99696.00
2019-01-20T18:47:49.316Z,99688.00
2019-01-20T18:49:54.374Z,99697.00
2019-01-20T18:51:59.463Z,99691.00
2019-01-20T18:54:04.502Z,99708.00
2019-01-20T18:56:09.618Z,99705.00
2019-01-20T18:58:14.657Z,99709.00
2019-01-20T19:00:27.405Z,99702.00
2019-01-20T19:02:32.531Z,99709.00
2019-01-20T19:04:37.568Z,99702.00
2019-01-20T19:06:42.883Z,99707.00
2019-01-20T19:08:47.859Z,99704.00
2019-01-20T19:10:52.888Z,99716.00
2019-01-20T19:12:58.312Z,99706.00
2019-01-20T19:15:03.485Z,99707.00
2019-01-20T19:17:09.129Z,99717.00
2019-01-20T19:19:14.284Z,99717.00
2019-01-20T19:21:19.273Z,99714.00
2019-01-20T19:23:24.374Z,99729.00
2019-01-20T19:25:29.492Z,99730.00
2019-01-20T19:27:34.607Z,99729.00
2019-01-20T19:29:39.654Z,99732.00
2019-01-20T19:31:45.011Z,99734.00
2019-01-20T19:33:50.069Z,99742.00
2019-01-20T19:35:55.197Z,99737.00
2019-01-20T19:38:00.404Z,99744.00
2019-01-20T19:40:06.890Z,99734.00
2019-01-20T19:42:11.877Z,99736.00
2019-01-20T19:44:16.764Z,99755.00
2019-01-20T19:46:21.993Z,99751.00
2019-01-20T19:48:27.083Z,99738.00
2019-01-20T19:50:32.204Z,99746.00
2019-01-20T19:52:37.645Z,99748.00
2019-01-20T19:54:42.611Z,99759.00
2019-01-20T19:56:47.559Z,99748.00
2019-01-20T19:58:52.933Z,99755.00
2019-01-20T20:00:58.036Z,99753.00
2019-01-20T20:03:03.189Z,99747.00
2019-01-20T20:05:13.004Z,99749.00
2019-01-20T20:07:18.225Z,99756.00
2019-01-20T20:09:23.203Z,99761.00
2019-01-20T20:11:28.239Z,99764.00
2019-01-20T20:13:33.144Z,99764.00
2019-01-20T20:15:38.241Z,99757.00
2019-01-20T20:17:43.301Z,99764.00
2019-01-20T20:19:48.540Z,99761.00
2019-01-20T20:21:53.595Z,99764.00
2019-01-20T20:23:58.635Z,99776.00
2019-01-20T20:26:03.778Z,99772.00
2019-01-20T20:28:09.164Z,99782.00
2019-01-20T20:30:24.514Z,99778.00
2019-01-20T20:32:29.553Z,99784.00
2019-01-20T20:34:37.816Z,99788.00
2019-01-20T20:36:42.864Z,99792.00
2019-01-20T20:38:47.853Z,99789.00
2019-01-20T20:40:52.954Z,99791.00
2019-01-20T20:42:58.185Z,99795.00
2019-01-20T20:45:03.285Z,99804.00
2019-01-20T20:47:08.330Z,99811.00
2019-01-20T20:49:13.917Z,99801.00
2019-01-20T20:51:21.778Z,99809.00
2019-01-20T20:53:27.060Z,99822.00
2019-01-20T20:55:32.937Z,99811.00
2019-01-20T20:57:37.911Z,99817.00
2019-01-20T20:59:42.889Z,99825.00
2019-01-20T21:01:47.864Z,99823.00
2019-01-20T21:03:53.437Z,99834.00
2019-01-20T21:05:59.202Z,99827.00
2019-01-20T21:08:04.425Z,99834.00
2019-01-20T21:10:14.247Z,99827.00
2019-01-20T21:12:19.480Z,99837.00
2019-01-20T21:14:24.445Z,99824.00
2019-01-20T21:16:29.521Z,99828.00
2019-01-20T21:18:34.582Z,99828.00
2019-01-20T21:20:39.649Z,99817.00
2019-01-20T21:22:45.134Z,99810.00
2019-01-20T21:24:50.106Z,99825.00
2019-01-20T21:26:55.259Z,99830.00
2019-01-20T21:29:00.156Z,99827.00
2019-01-20T21:31:05.225Z,99830.00
2019-01-20T21:33:10.378Z,99842.00
2019-01-20T21:35:16.215Z,99847.00
2019-01-20T21:37:21.265Z,99842.00
2019-01-20T21:39:26.182Z,99853.00
2019-01-20T21:41:31.203Z,99838.00
2019-01-20T21:43:36.268Z,99850.00
2019-01-20T21:45:41.373Z,99856.00
2019-01-20T21:47:46.609Z,99863.00
2019-01-20T21:49:51.522Z,99859.00
2019-01-20T21:51:56.650Z,99857.00
2019-01-20T21:54:01.862Z,99860.00
2019-01-20T21:56:06.886Z,99866.00
2019-01-20T21:58:13.077Z,99864.00
2019-01-20T22:00:21.649Z,99869.00
2019-01-20T22:02:26.548Z,99873.00
2019-01-20T22:04:31.572Z,99878.00
2019-01-20T22:06:36.615Z,99874.00
2019-01-20T22:08:41.679Z,99881.00
2019-01-20T22:10:46.784Z,99887.00
2019-01-20T22:12:52.278Z,99881.00
2019-01-20T22:14:57.336Z,99884.00
2019-01-20T22:17:02.225Z,99888.00
2019-01-20T22:19:07.387Z,99889.00
2019-01-20T22:21:12.495Z,99892.00
2019-01-20T22:23:17.461Z,99882.00
2019-01-20T22:25:22.530Z,99887.00
2019-01-20T22:27:27.766Z,99886.00
2019-01-20T22:29:33.029Z,99879.00
2019-01-20T22:31:38.004Z,99897.00
2019-01-20T22:33:42.962Z,99884.00
2019-01-20T22:35:48.013Z,99897.00
2019-01-20T22:37:53.073Z,99901.00
2019-01-20T22:39:58.315Z,99903.00
2019-01-20T22:42:03.404Z,99891.00
2019-01-20T22:44:08.446Z,99900.00
2019-01-20T22:46:13.536Z,99902.00
2019-01-20T22:48:18.783Z,99907.00
2019-01-20T22:50:24.453Z,99899.00
2019-01-20T22:52:29.533Z,99897.00
2019-01-20T22:54:34.518Z,99885.00
2019-01-20T22:56:39.412Z,99895.00
2019-01-20T22:58:44.389Z,99900.00
2019-01-20T23:01:03.077Z,99903.00
2019-01-20T23:03:08.456Z,99894.00
2019-01-20T23:05:14.292Z,99897.00
2019-01-20T23:07:19.437Z,99901.00
2019-01-20T23:09:24.699Z,99911.00
2019-01-20T23:11:29.613Z,99903.00
2019-01-20T23:13:34.554Z,99911.00
2019-01-20T23:15:39.589Z,99910.00
2019-01-20T23:17:44.734Z,99907.00
2019-01-20T23:19:49.817Z,99916.00
2019-01-20T23:21:54.797Z,99909.00
2019-01-20T23:23:59.854Z,99916.00
2019-01-20T23:26:05.216Z,99920.00
2019-01-20T23:28:10.590Z,99929.00
2019-01-20T23:30:16.772Z,99914.00
2019-01-20T23:32:21.835Z,99921.00
2019-01-20T23:34:27.069Z,99924.00
2019-01-20T23:36:32.530Z,99922.00
2019-01-20T23:38:37.917Z,99923.00
2019-01-20T23:40:42.887Z,99926.00
2019-01-20T23:42:48.013Z,99926.00
2019-01-20T23:44:53.248Z,99916.00
2019-01-20T23:46:58.278Z,99927.00
2019-01-20T23:49:03.292Z,99923.00
2019-01-20T23:51:08.618Z,99921.00
2019-01-20T23:53:13.671Z,99925.00
2019-01-20T23:55:18.798Z,99929.00
2019-01-20T23:57:23.889Z,99923.00
2019-01-20T23:59:29.120Z,99921.00
